createdAt,value
2019-04-03T00:03:07.865Z,10.23
2019-04-03T00:08:10.902Z,10.25
2019-04-03T00:13:13.914Z,10.72
2019-04-03T00:18:16.909Z,10.35
2019-04-03T00:23:21.968Z,10.23
2019-04-03T00:28:24.960Z,10.23
2019-04-03T00:33:28.083Z,10.95
2019-04-03T00:38:31.327Z,12.43
2019-04-03T00:43:34.384Z,10.65
2019-04-03T00:48:37.594Z,10.85
2019-04-03T00:53:40.629Z,11.12
2019-04-03T00:58:44.165Z,10.45
2019-04-03T01:03:47.232Z,10.80
2019-04-03T01:08:50.179Z,11.97
2019-04-03T01:13:53.406Z,10.98
2019-04-03T01:18:56.371Z,11.43
2019-04-03T01:23:59.357Z,11.53
2019-04-03T01:29:02.416Z,10.40
2019-04-03T01:34:06.008Z,10.70
2019-04-03T01:39:09.271Z,12.10
2019-04-03T01:44:12.221Z,9.78
2019-04-03T01:49:15.250Z,10.75
2019-04-03T01:54:18.384Z,11.28
2019-04-03T01:59:21.551Z,10.80
2019-04-03T02:04:24.765Z,10.00
2019-04-03T02:09:27.871Z,11.48
2019-04-03T02:14:31.022Z,11.43
2019-04-03T02:19:34.063Z,9.83
2019-04-03T02:24:37.017Z,10.28
2019-04-03T02:29:40.426Z,10.70
2019-04-03T02:34:43.678Z,10.50
2019-04-03T02:39:46.983Z,12.40
2019-04-03T02:44:51.676Z,10.85
2019-04-03T02:49:55.014Z,10.72
2019-04-03T02:54:58.453Z,10.50
2019-04-03T03:00:01.835Z,10.78
2019-04-03T03:05:05.609Z,10.70
2019-04-03T03:10:09.508Z,11.78
2019-04-03T03:15:12.878Z,11.55
2019-04-03T03:20:21.501Z,10.85
2019-04-03T03:25:25.951Z,10.58
2019-04-03T03:30:41.778Z,11.95
2019-04-03T03:35:42.574Z,11.38
2019-04-03T03:40:41.529Z,10.20
2019-04-03T03:45:45.753Z,11.33
2019-04-03T03:50:49.281Z,11.20
2019-04-03T03:55:56.902Z,10.35
2019-04-03T04:01:00.323Z,9.58
2019-04-03T04:06:03.125Z,12.23
2019-04-03T04:11:06.410Z,10.03
2019-04-03T04:16:09.551Z,9.60
2019-04-03T04:21:14.382Z,9.93
2019-04-03T04:26:17.595Z,10.47
2019-04-03T04:31:20.666Z,10.72
2019-04-03T04:36:24.828Z,10.80
2019-04-03T04:41:28.330Z,10.03
2019-04-03T04:46:31.392Z,9.75
2019-04-03T04:51:34.395Z,10.15
2019-04-03T04:56:38.448Z,9.65
2019-04-03T05:01:41.539Z,10.20
2019-04-03T05:06:44.830Z,10.55
2019-04-03T05:11:48.156Z,10.15
2019-04-03T05:16:51.436Z,11.12
2019-04-03T05:21:54.444Z,9.48
2019-04-03T05:26:57.487Z,11.15
2019-04-03T05:32:01.225Z,10.32
2019-04-03T05:37:04.306Z,10.63
2019-04-03T05:42:07.352Z,10.40
2019-04-03T05:47:10.688Z,9.95
2019-04-03T05:52:14.312Z,9.93
2019-04-03T05:57:17.437Z,10.43
2019-04-03T06:02:22.059Z,10.43
2019-04-03T06:07:25.965Z,11.12
2019-04-03T06:12:29.111Z,11.25
2019-04-03T06:17:32.337Z,10.58
2019-04-03T06:22:35.532Z,10.35
2019-04-03T06:27:40.794Z,11.27
2019-04-03T06:32:43.506Z,11.25
2019-04-03T06:37:46.562Z,10.82
2019-04-03T06:42:49.980Z,11.25
2019-04-03T06:47:53.018Z,11.25
2019-04-03T06:52:56.427Z,11.30
2019-04-03T06:57:59.630Z,11.22
2019-04-03T07:03:03.838Z,11.57
2019-04-03T07:08:07.178Z,10.93
2019-04-03T07:13:10.135Z,10.82
2019-04-03T07:18:13.160Z,11.03
2019-04-03T07:23:16.226Z,11.65
2019-04-03T07:28:19.223Z,10.90
2019-04-03T07:33:22.962Z,9.90
2019-04-03T07:38:26.189Z,9.78
2019-04-03T07:43:29.225Z,10.32
2019-04-03T07:48:33.542Z,10.20
2019-04-03T07:53:37.288Z,10.08
2019-04-03T07:58:40.475Z,12.68
2019-04-03T08:03:43.522Z,9.15
2019-04-03T08:08:46.910Z,10.72
2019-04-03T08:13:50.084Z,11.15
2019-04-03T08:18:53.184Z,10.90
2019-04-03T08:23:56.157Z,11.20
2019-04-03T08:29:01.810Z,10.88
2019-04-03T08:34:14.688Z,10.53
2019-04-03T08:39:09.472Z,11.18
2019-04-03T08:44:12.571Z,11.20
2019-04-03T08:49:15.797Z,11.28
2019-04-03T08:54:18.831Z,10.63
2019-04-03T08:59:21.881Z,11.95
2019-04-03T09:04:25.428Z,10.85
2019-04-03T09:09:30.044Z,10.20
2019-04-03T09:14:33.668Z,10.60
2019-04-03T09:19:36.777Z,11.68
2019-04-03T09:24:40.161Z,12.23
2019-04-03T09:29:45.141Z,11.45
2019-04-03T09:34:48.381Z,11.28
2019-04-03T09:39:51.701Z,11.90
2019-04-03T09:44:56.197Z,9.98
2019-04-03T09:49:59.699Z,9.95
2019-04-03T09:55:03.550Z,9.63
2019-04-03T10:00:10.997Z,9.33
2019-04-03T10:05:15.160Z,9.40
2019-04-03T10:10:18.791Z,9.23
2019-04-03T10:15:22.054Z,8.43
2019-04-03T10:20:25.783Z,8.15
2019-04-03T10:25:28.816Z,9.00
2019-04-03T10:30:32.183Z,9.25
2019-04-03T10:35:35.299Z,8.18
2019-04-03T10:40:38.644Z,7.78
2019-04-03T10:45:42.074Z,7.10
2019-04-03T10:50:45.940Z,8.10
2019-04-03T10:55:49.212Z,7.85
2019-04-03T11:00:52.613Z,7.63
2019-04-03T11:05:56.213Z,7.00
2019-04-03T11:10:59.718Z,7.67
2019-04-03T11:16:02.779Z,7.72
2019-04-03T11:21:05.838Z,7.40
2019-04-03T11:26:09.307Z,7.97
2019-04-03T11:31:23.911Z,7.30
2019-04-03T11:36:17.666Z,7.42
2019-04-03T11:41:22.865Z,6.87
2019-04-03T11:46:25.759Z,7.03
2019-04-03T11:51:29.550Z,7.85
2019-04-03T11:56:33.180Z,7.72
2019-04-03T12:01:36.561Z,7.00
2019-04-03T12:06:39.694Z,7.92
2019-04-03T12:11:42.775Z,7.00
2019-04-03T12:16:46.124Z,6.80
2019-04-03T12:21:50.844Z,7.25
2019-04-03T12:26:55.403Z,6.42
2019-04-03T12:31:59.161Z,6.40
2019-04-03T12:37:02.506Z,7.17
2019-04-03T12:42:08.402Z,6.70
2019-04-03T12:47:13.168Z,6.97
2019-04-03T12:52:16.376Z,7.35
2019-04-03T12:57:19.978Z,5.85
2019-04-03T13:02:23.053Z,6.42
2019-04-03T13:07:26.179Z,6.40
2019-04-03T13:12:29.281Z,6.90
2019-04-03T13:17:32.525Z,6.70
2019-04-03T13:22:35.684Z,7.20
2019-04-03T13:27:39.672Z,7.34
2019-04-03T13:32:43.106Z,7.10
2019-04-03T13:37:46.330Z,7.53
2019-04-03T13:42:49.669Z,6.10
2019-04-03T13:47:53.311Z,6.80
2019-04-03T13:52:56.444Z,6.97
2019-04-03T13:57:59.496Z,6.87
2019-04-03T14:03:02.601Z,6.30
2019-04-03T14:08:07.265Z,5.92
2019-04-03T14:13:12.423Z,6.28
2019-04-03T14:18:15.838Z,6.55
2019-04-03T14:23:19.247Z,7.80
2019-04-03T14:28:22.951Z,6.70
2019-04-03T14:33:26.840Z,7.40
2019-04-03T14:38:32.389Z,7.40
2019-04-03T14:43:35.586Z,6.83
2019-04-03T14:48:39.426Z,6.87
2019-04-03T14:53:42.451Z,6.65
2019-04-03T14:58:45.492Z,8.95
2019-04-03T15:03:48.964Z,7.25
2019-04-03T15:08:54.794Z,7.22
2019-04-03T15:13:58.364Z,7.10
2019-04-03T15:19:02.622Z,6.97
2019-04-03T15:24:05.813Z,7.20
2019-04-03T15:29:08.927Z,7.78
2019-04-03T15:34:12.081Z,8.33
2019-04-03T15:39:16.819Z,7.15
2019-04-03T15:44:21.722Z,7.42
2019-04-03T15:49:26.743Z,7.80
2019-04-03T15:54:32.919Z,9.40
2019-04-03T15:59:35.482Z,8.25
2019-04-03T16:04:38.610Z,7.65
2019-04-03T16:09:41.670Z,7.67
2019-04-03T16:14:45.235Z,8.90
2019-04-03T16:19:48.756Z,8.93
2019-04-03T16:24:53.695Z,8.60
2019-04-03T16:29:57.283Z,8.33
2019-04-03T16:35:00.506Z,8.80
2019-04-03T16:40:06.029Z,9.25
2019-04-03T16:50:13.273Z,8.97
2019-04-03T16:55:17.033Z,9.65
2019-04-03T17:00:21.103Z,10.32
2019-04-03T17:05:24.311Z,10.15
2019-04-03T17:10:27.435Z,10.13
2019-04-03T17:15:32.010Z,12.60
2019-04-03T17:20:35.634Z,10.08
2019-04-03T17:25:47.699Z,10.88
2019-04-03T17:30:43.921Z,10.97
2019-04-03T17:35:48.404Z,10.08
2019-04-03T17:40:51.635Z,11.57
2019-04-03T17:45:54.778Z,11.90
2019-04-03T17:50:57.936Z,12.28
2019-04-03T17:56:01.128Z,11.03
2019-04-03T18:01:04.356Z,11.93
2019-04-03T18:06:07.389Z,12.55
2019-04-03T18:11:13.063Z,12.53
2019-04-03T18:16:15.736Z,12.23
2019-04-03T18:21:19.194Z,12.07
2019-04-03T18:26:22.422Z,11.63
2019-04-03T18:31:25.639Z,11.83
2019-04-03T18:36:31.208Z,11.80
2019-04-03T18:41:34.104Z,11.50
2019-04-03T18:46:37.436Z,12.47
2019-04-03T18:51:40.673Z,11.90
2019-04-03T18:56:45.586Z,11.85
2019-04-03T19:01:48.889Z,12.98
2019-04-03T19:06:52.165Z,14.00
2019-04-03T19:12:07.697Z,13.85
2019-04-03T19:17:00.229Z,16.02
2019-04-03T19:22:04.279Z,16.52
2019-04-03T19:27:07.992Z,15.30
2019-04-03T19:32:12.244Z,16.02
2019-04-03T19:37:15.953Z,15.00
2019-04-03T19:42:18.989Z,14.78
2019-04-03T19:47:22.798Z,16.57
2019-04-03T19:52:27.606Z,16.37
2019-04-03T19:57:30.882Z,15.78
2019-04-03T20:02:34.043Z,15.80
2019-04-03T20:07:37.673Z,16.73
2019-04-03T20:12:40.824Z,15.13
2019-04-03T20:17:44.050Z,14.60
2019-04-03T20:22:47.515Z,17.55
2019-04-03T20:27:52.206Z,17.50
2019-04-03T20:32:55.739Z,18.48
2019-04-03T20:38:02.119Z,17.13
2019-04-03T20:43:05.178Z,16.87
2019-04-03T20:48:08.424Z,16.20
2019-04-03T20:53:11.576Z,17.27
2019-04-03T20:58:14.894Z,18.32
2019-04-03T21:03:18.013Z,19.70
2019-04-03T21:08:21.153Z,17.42
2019-04-03T21:13:24.203Z,19.50
2019-04-03T21:18:27.463Z,16.97
2019-04-03T21:23:33.325Z,15.30
2019-04-03T21:28:35.834Z,19.00
2019-04-03T21:33:39.018Z,18.85
2019-04-03T21:38:42.280Z,19.98
2019-04-03T21:43:45.848Z,20.60
2019-04-03T21:48:48.997Z,19.92
2019-04-03T21:53:53.921Z,18.30
2019-04-03T21:58:57.106Z,18.45
2019-04-03T22:04:00.374Z,19.32
2019-04-03T22:09:08.482Z,17.67
2019-04-03T22:14:11.704Z,17.55
2019-04-03T22:19:14.946Z,18.85
2019-04-03T22:24:17.913Z,16.57
2019-04-03T22:29:21.122Z,16.23
2019-04-03T22:34:24.148Z,15.08
2019-04-03T22:39:27.366Z,15.25
2019-04-03T22:44:30.320Z,16.27
2019-04-03T22:49:33.963Z,16.87
2019-04-03T22:54:37.821Z,17.60
2019-04-03T22:59:40.773Z,16.45
2019-04-03T23:04:46.282Z,16.00
2019-04-03T23:09:48.944Z,16.37
2019-04-03T23:14:52.076Z,17.10
2019-04-03T23:19:55.161Z,17.20
2019-04-03T23:24:59.533Z,16.55
2019-04-03T23:30:03.756Z,17.62
2019-04-03T23:35:07.040Z,18.77
2019-04-03T23:40:10.373Z,17.60
2019-04-03T23:45:13.509Z,18.90
2019-04-03T23:50:16.630Z,17.12
2019-04-03T23:55:19.735Z,16.70
